Washington, District of Columbia
Traffic Map
Current Weather Conditions
Washington, District of Columbia
Few Clouds
Few Clouds
11°
Feels Like: 11°
Wind Chill: 11° Ceiling: Unl
Heat Index: 11° Visibility: 10mi
Dew Point: -8° Wind: 9mph
Humidity: 27% Direction: 50° (NE)
Pressure: 30.43in Gusts: 0mph
Raw Report DataKDCA 162052Z 05008KT 10SM FEW250 11/M08 A3043 RMK AO2 SLP305 T01061078 56008 $
Traffic Incident Summary
Active as of:
Severity:
Category:
InformationThere was an issue retrieving the traffic information for this location. Please try a different location or try again shortly.
Advertisements
At Last! Intellicast now available for iPhone and Android